sensor_id;sensor_type;location;lat;lon;timestamp;P1;durP1;ratioP1;P2;durP2;ratioP2
39792;SDS011;26080;42.264;24.536;2024-01-30T00:01:21;3.97;;;3.07;;
39792;SDS011;26080;42.264;24.536;2024-01-30T00:03:47;4.10;;;1.47;;
39792;SDS011;26080;42.264;24.536;2024-01-30T00:06:12;3.43;;;1.03;;
39792;SDS011;26080;42.264;24.536;2024-01-30T00:08:37;4.47;;;2.70;;
39792;SDS011;26080;42.264;24.536;2024-01-30T00:11:03;3.23;;;1.80;;
39792;SDS011;26080;42.264;24.536;2024-01-30T00:13:28;3.60;;;1.60;;
39792;SDS011;26080;42.264;24.536;2024-01-30T00:15:54;3.13;;;2.57;;
39792;SDS011;26080;42.264;24.536;2024-01-30T00:18:19;5.63;;;1.37;;
39792;SDS011;26080;42.264;24.536;2024-01-30T00:20:45;3.97;;;2.63;;
39792;SDS011;26080;42.264;24.536;2024-01-30T00:23:10;2.17;;;1.50;;
39792;SDS011;26080;42.264;24.536;2024-01-30T00:25:36;2.27;;;1.17;;
39792;SDS011;26080;42.264;24.536;2024-01-30T00:28:01;1.67;;;1.33;;
39792;SDS011;26080;42.264;24.536;2024-01-30T00:30:27;1.93;;;1.30;;
39792;SDS011;26080;42.264;24.536;2024-01-30T00:32:53;2.53;;;1.20;;
39792;SDS011;26080;42.264;24.536;2024-01-30T00:35:19;3.20;;;1.80;;
39792;SDS011;26080;42.264;24.536;2024-01-30T00:37:45;0.70;;;0.70;;
39792;SDS011;26080;42.264;24.536;2024-01-30T00:40:10;1.33;;;1.07;;
39792;SDS011;26080;42.264;24.536;2024-01-30T00:42:40;2.70;;;1.60;;
39792;SDS011;26080;42.264;24.536;2024-01-30T00:45:11;2.30;;;1.13;;
39792;SDS011;26080;42.264;24.536;2024-01-30T00:47:37;5.57;;;1.63;;
39792;SDS011;26080;42.264;24.536;2024-01-30T00:50:02;3.40;;;1.27;;
39792;SDS011;26080;42.264;24.536;2024-01-30T00:52:28;3.20;;;0.97;;
39792;SDS011;26080;42.264;24.536;2024-01-30T00:54:53;3.07;;;1.63;;
39792;SDS011;26080;42.264;24.536;2024-01-30T00:57:19;1.53;;;1.20;;
39792;SDS011;26080;42.264;24.536;2024-01-30T00:59:44;0.93;;;0.40;;
39792;SDS011;26080;42.264;24.536;2024-01-30T01:02:09;4.00;;;1.60;;
39792;SDS011;26080;42.264;24.536;2024-01-30T01:04:35;2.20;;;1.60;;
39792;SDS011;26080;42.264;24.536;2024-01-30T01:07:00;7.73;;;3.33;;
39792;SDS011;26080;42.264;24.536;2024-01-30T01:09:26;0.57;;;0.53;;
39792;SDS011;26080;42.264;24.536;2024-01-30T01:11:51;2.27;;;0.87;;
39792;SDS011;26080;42.264;24.536;2024-01-30T01:14:17;0.53;;;0.50;;
39792;SDS011;26080;42.264;24.536;2024-01-30T01:16:42;0.83;;;0.73;;
39792;SDS011;26080;42.264;24.536;2024-01-30T01:19:07;1.40;;;1.17;;
39792;SDS011;26080;42.264;24.536;2024-01-30T01:21:33;2.20;;;1.13;;
39792;SDS011;26080;42.264;24.536;2024-01-30T01:23:58;1.40;;;1.07;;
39792;SDS011;26080;42.264;24.536;2024-01-30T01:26:24;1.57;;;1.17;;
39792;SDS011;26080;42.264;24.536;2024-01-30T01:28:49;2.27;;;1.47;;
39792;SDS011;26080;42.264;24.536;2024-01-30T01:31:14;0.87;;;0.87;;
39792;SDS011;26080;42.264;24.536;2024-01-30T01:33:40;2.00;;;1.20;;
39792;SDS011;26080;42.264;24.536;2024-01-30T01:36:05;1.73;;;1.63;;
39792;SDS011;26080;42.264;24.536;2024-01-30T01:38:31;2.60;;;1.20;;
39792;SDS011;26080;42.264;24.536;2024-01-30T01:40:57;1.93;;;1.40;;
39792;SDS011;26080;42.264;24.536;2024-01-30T01:43:22;1.30;;;1.20;;
39792;SDS011;26080;42.264;24.536;2024-01-30T01:45:47;3.27;;;1.73;;
39792;SDS011;26080;42.264;24.536;2024-01-30T01:48:13;2.83;;;1.80;;
39792;SDS011;26080;42.264;24.536;2024-01-30T01:50:38;1.63;;;1.43;;
39792;SDS011;26080;42.264;24.536;2024-01-30T01:53:05;0.90;;;0.90;;
39792;SDS011;26080;42.264;24.536;2024-01-30T01:55:33;3.70;;;1.63;;
39792;SDS011;26080;42.264;24.536;2024-01-30T01:58:00;3.90;;;1.37;;
39792;SDS011;26080;42.264;24.536;2024-01-30T02:00:26;2.93;;;0.70;;
39792;SDS011;26080;42.264;24.536;2024-01-30T02:02:52;3.13;;;1.73;;
39792;SDS011;26080;42.264;24.536;2024-01-30T02:05:19;3.63;;;0.83;;
39792;SDS011;26080;42.264;24.536;2024-01-30T02:07:46;2.27;;;1.73;;
39792;SDS011;26080;42.264;24.536;2024-01-30T02:10:11;2.23;;;1.57;;
39792;SDS011;26080;42.264;24.536;2024-01-30T02:12:37;2.53;;;1.10;;
39792;SDS011;26080;42.264;24.536;2024-01-30T02:15:03;1.70;;;0.83;;
39792;SDS011;26080;42.264;24.536;2024-01-30T02:17:30;0.97;;;0.90;;
39792;SDS011;26080;42.264;24.536;2024-01-30T02:19:55;3.20;;;0.77;;
39792;SDS011;26080;42.264;24.536;2024-01-30T02:22:21;1.60;;;1.30;;
39792;SDS011;26080;42.264;24.536;2024-01-30T02:24:47;1.63;;;1.37;;
39792;SDS011;26080;42.264;24.536;2024-01-30T02:27:13;1.63;;;1.40;;
39792;SDS011;26080;42.264;24.536;2024-01-30T02:29:38;0.43;;;0.43;;
39792;SDS011;26080;42.264;24.536;2024-01-30T02:32:03;1.10;;;0.70;;
39792;SDS011;26080;42.264;24.536;2024-01-30T02:34:30;2.33;;;1.00;;
39792;SDS011;26080;42.264;24.536;2024-01-30T02:36:56;0.60;;;0.60;;
39792;SDS011;26080;42.264;24.536;2024-01-30T02:39:21;2.03;;;1.53;;
39792;SDS011;26080;42.264;24.536;2024-01-30T02:41:46;1.33;;;0.80;;
39792;SDS011;26080;42.264;24.536;2024-01-30T02:44:12;2.10;;;1.23;;
39792;SDS011;26080;42.264;24.536;2024-01-30T02:46:37;3.33;;;1.17;;
39792;SDS011;26080;42.264;24.536;2024-01-30T02:49:03;1.53;;;1.43;;
39792;SDS011;26080;42.264;24.536;2024-01-30T02:51:28;1.17;;;1.00;;
39792;SDS011;26080;42.264;24.536;2024-01-30T02:53:53;1.07;;;0.83;;
39792;SDS011;26080;42.264;24.536;2024-01-30T02:56:19;1.67;;;1.10;;
39792;SDS011;26080;42.264;24.536;2024-01-30T02:58:44;2.73;;;1.97;;
39792;SDS011;26080;42.264;24.536;2024-01-30T03:01:10;6.20;;;2.23;;
39792;SDS011;26080;42.264;24.536;2024-01-30T03:03:35;4.40;;;2.13;;
39792;SDS011;26080;42.264;24.536;2024-01-30T03:06:01;3.80;;;1.67;;
39792;SDS011;26080;42.264;24.536;2024-01-30T03:08:27;5.20;;;1.60;;
39792;SDS011;26080;42.264;24.536;2024-01-30T03:10:52;2.93;;;1.87;;
39792;SDS011;26080;42.264;24.536;2024-01-30T03:13:18;1.73;;;1.63;;
39792;SDS011;26080;42.264;24.536;2024-01-30T03:15:43;1.10;;;1.00;;
39792;SDS011;26080;42.264;24.536;2024-01-30T03:18:09;1.23;;;1.03;;
39792;SDS011;26080;42.264;24.536;2024-01-30T03:20:34;1.23;;;1.13;;
39792;SDS011;26080;42.264;24.536;2024-01-30T03:22:59;2.37;;;1.23;;
39792;SDS011;26080;42.264;24.536;2024-01-30T03:25:25;2.90;;;0.90;;
39792;SDS011;26080;42.264;24.536;2024-01-30T03:27:51;0.77;;;0.63;;
39792;SDS011;26080;42.264;24.536;2024-01-30T03:30:16;3.30;;;0.97;;
39792;SDS011;26080;42.264;24.536;2024-01-30T03:32:42;0.80;;;0.73;;
39792;SDS011;26080;42.264;24.536;2024-01-30T03:35:08;2.10;;;1.17;;
39792;SDS011;26080;42.264;24.536;2024-01-30T03:37:34;2.53;;;1.73;;
39792;SDS011;26080;42.264;24.536;2024-01-30T03:39:59;2.33;;;1.30;;
39792;SDS011;26080;42.264;24.536;2024-01-30T03:42:25;3.20;;;0.77;;
39792;SDS011;26080;42.264;24.536;2024-01-30T03:44:50;0.73;;;0.50;;
39792;SDS011;26080;42.264;24.536;2024-01-30T03:47:20;4.20;;;0.90;;
39792;SDS011;26080;42.264;24.536;2024-01-30T03:49:46;3.30;;;1.30;;
39792;SDS011;26080;42.264;24.536;2024-01-30T03:52:11;2.73;;;1.63;;
39792;SDS011;26080;42.264;24.536;2024-01-30T03:54:37;2.43;;;0.73;;
39792;SDS011;26080;42.264;24.536;2024-01-30T03:57:02;1.37;;;1.20;;
39792;SDS011;26080;42.264;24.536;2024-01-30T03:59:28;2.37;;;1.30;;
39792;SDS011;26080;42.264;24.536;2024-01-30T04:01:54;4.00;;;2.50;;
39792;SDS011;26080;42.264;24.536;2024-01-30T04:04:20;2.70;;;1.43;;
39792;SDS011;26080;42.264;24.536;2024-01-30T04:06:45;1.07;;;1.07;;
39792;SDS011;26080;42.264;24.536;2024-01-30T04:09:12;4.47;;;2.70;;
39792;SDS011;26080;42.264;24.536;2024-01-30T04:11:38;3.50;;;0.97;;
39792;SDS011;26080;42.264;24.536;2024-01-30T04:14:04;1.90;;;0.90;;
39792;SDS011;26080;42.264;24.536;2024-01-30T04:16:30;1.40;;;1.13;;
39792;SDS011;26080;42.264;24.536;2024-01-30T04:18:55;3.73;;;1.83;;
39792;SDS011;26080;42.264;24.536;2024-01-30T04:21:21;5.37;;;2.93;;
39792;SDS011;26080;42.264;24.536;2024-01-30T04:23:47;3.40;;;2.13;;
39792;SDS011;26080;42.264;24.536;2024-01-30T04:26:13;5.27;;;2.80;;
39792;SDS011;26080;42.264;24.536;2024-01-30T04:28:41;7.77;;;2.17;;
39792;SDS011;26080;42.264;24.536;2024-01-30T04:31:07;7.40;;;4.90;;
39792;SDS011;26080;42.264;24.536;2024-01-30T04:33:32;3.27;;;2.23;;
39792;SDS011;26080;42.264;24.536;2024-01-30T04:35:58;11.17;;;5.33;;
39792;SDS011;26080;42.264;24.536;2024-01-30T04:38:23;12.63;;;5.87;;
39792;SDS011;26080;42.264;24.536;2024-01-30T04:40:48;4.73;;;3.03;;
39792;SDS011;26080;42.264;24.536;2024-01-30T04:43:14;2.73;;;1.97;;
39792;SDS011;26080;42.264;24.536;2024-01-30T04:45:40;1.87;;;1.23;;
39792;SDS011;26080;42.264;24.536;2024-01-30T04:48:06;3.67;;;2.30;;
39792;SDS011;26080;42.264;24.536;2024-01-30T04:50:32;3.00;;;1.63;;
39792;SDS011;26080;42.264;24.536;2024-01-30T04:52:57;2.57;;;1.93;;
39792;SDS011;26080;42.264;24.536;2024-01-30T04:55:22;6.70;;;1.57;;
39792;SDS011;26080;42.264;24.536;2024-01-30T04:57:48;3.47;;;2.23;;
39792;SDS011;26080;42.264;24.536;2024-01-30T05:00:13;1.80;;;1.37;;
39792;SDS011;26080;42.264;24.536;2024-01-30T05:02:39;4.40;;;2.43;;
39792;SDS011;26080;42.264;24.536;2024-01-30T05:05:04;7.80;;;3.03;;
39792;SDS011;26080;42.264;24.536;2024-01-30T05:07:30;6.80;;;3.77;;
39792;SDS011;26080;42.264;24.536;2024-01-30T05:09:56;6.00;;;3.53;;
39792;SDS011;26080;42.264;24.536;2024-01-30T05:12:21;5.87;;;3.67;;
39792;SDS011;26080;42.264;24.536;2024-01-30T05:14:47;5.77;;;4.17;;
39792;SDS011;26080;42.264;24.536;2024-01-30T05:17:12;6.63;;;3.20;;
39792;SDS011;26080;42.264;24.536;2024-01-30T05:19:38;3.40;;;2.13;;
39792;SDS011;26080;42.264;24.536;2024-01-30T05:22:03;4.17;;;3.50;;
39792;SDS011;26080;42.264;24.536;2024-01-30T05:24:29;4.30;;;2.97;;
39792;SDS011;26080;42.264;24.536;2024-01-30T05:26:54;2.90;;;2.23;;
39792;SDS011;26080;42.264;24.536;2024-01-30T05:29:20;5.00;;;1.93;;
39792;SDS011;26080;42.264;24.536;2024-01-30T05:31:45;2.37;;;2.10;;
39792;SDS011;26080;42.264;24.536;2024-01-30T05:34:10;6.90;;;1.60;;
39792;SDS011;26080;42.264;24.536;2024-01-30T05:36:36;4.03;;;2.33;;
39792;SDS011;26080;42.264;24.536;2024-01-30T05:39:01;4.93;;;2.23;;
39792;SDS011;26080;42.264;24.536;2024-01-30T05:41:27;9.07;;;3.20;;
39792;SDS011;26080;42.264;24.536;2024-01-30T05:43:53;4.60;;;3.70;;
39792;SDS011;26080;42.264;24.536;2024-01-30T05:46:18;7.50;;;5.73;;
39792;SDS011;26080;42.264;24.536;2024-01-30T05:48:43;8.27;;;4.70;;
39792;SDS011;26080;42.264;24.536;2024-01-30T05:51:09;10.23;;;4.40;;
39792;SDS011;26080;42.264;24.536;2024-01-30T05:53:34;14.43;;;4.10;;
39792;SDS011;26080;42.264;24.536;2024-01-30T05:56:03;231.93;;;93.07;;
39792;SDS011;26080;42.264;24.536;2024-01-30T05:58:28;132.43;;;60.00;;
39792;SDS011;26080;42.264;24.536;2024-01-30T06:00:56;36.67;;;18.60;;
39792;SDS011;26080;42.264;24.536;2024-01-30T06:03:21;182.13;;;57.30;;
39792;SDS011;26080;42.264;24.536;2024-01-30T06:05:46;122.73;;;49.57;;
39792;SDS011;26080;42.264;24.536;2024-01-30T06:08:12;151.40;;;69.30;;
39792;SDS011;26080;42.264;24.536;2024-01-30T06:10:37;118.67;;;36.93;;
39792;SDS011;26080;42.264;24.536;2024-01-30T06:13:03;104.03;;;36.30;;
39792;SDS011;26080;42.264;24.536;2024-01-30T06:15:28;141.77;;;48.80;;
39792;SDS011;26080;42.264;24.536;2024-01-30T06:17:57;131.73;;;56.27;;
39792;SDS011;26080;42.264;24.536;2024-01-30T06:20:23;51.77;;;13.43;;
39792;SDS011;26080;42.264;24.536;2024-01-30T06:22:49;9.07;;;4.83;;
39792;SDS011;26080;42.264;24.536;2024-01-30T06:25:14;30.80;;;9.77;;
39792;SDS011;26080;42.264;24.536;2024-01-30T06:27:41;99.43;;;39.90;;
39792;SDS011;26080;42.264;24.536;2024-01-30T06:30:06;70.30;;;28.33;;
39792;SDS011;26080;42.264;24.536;2024-01-30T06:32:32;26.50;;;10.60;;
39792;SDS011;26080;42.264;24.536;2024-01-30T06:35:00;9.27;;;6.53;;
39792;SDS011;26080;42.264;24.536;2024-01-30T06:37:26;16.43;;;8.90;;
39792;SDS011;26080;42.264;24.536;2024-01-30T06:39:51;15.13;;;9.50;;
39792;SDS011;26080;42.264;24.536;2024-01-30T06:42:17;8.60;;;6.03;;
39792;SDS011;26080;42.264;24.536;2024-01-30T06:44:43;9.60;;;5.60;;
39792;SDS011;26080;42.264;24.536;2024-01-30T06:47:08;31.70;;;11.87;;
39792;SDS011;26080;42.264;24.536;2024-01-30T06:49:34;8.53;;;5.47;;
39792;SDS011;26080;42.264;24.536;2024-01-30T06:52:00;9.17;;;5.23;;
39792;SDS011;26080;42.264;24.536;2024-01-30T06:54:25;7.37;;;3.87;;
39792;SDS011;26080;42.264;24.536;2024-01-30T06:56:50;4.80;;;3.80;;
39792;SDS011;26080;42.264;24.536;2024-01-30T06:59:16;13.53;;;5.20;;
39792;SDS011;26080;42.264;24.536;2024-01-30T07:01:41;47.40;;;15.47;;
39792;SDS011;26080;42.264;24.536;2024-01-30T07:04:07;19.93;;;9.73;;
39792;SDS011;26080;42.264;24.536;2024-01-30T07:06:32;16.80;;;9.43;;
39792;SDS011;26080;42.264;24.536;2024-01-30T07:08:57;28.80;;;14.57;;
39792;SDS011;26080;42.264;24.536;2024-01-30T07:11:23;8.33;;;4.53;;
39792;SDS011;26080;42.264;24.536;2024-01-30T07:13:50;11.17;;;5.13;;
39792;SDS011;26080;42.264;24.536;2024-01-30T07:16:16;15.90;;;9.13;;
39792;SDS011;26080;42.264;24.536;2024-01-30T07:18:41;25.77;;;11.03;;
39792;SDS011;26080;42.264;24.536;2024-01-30T07:21:07;72.20;;;31.90;;
39792;SDS011;26080;42.264;24.536;2024-01-30T07:23:32;13.57;;;7.77;;
39792;SDS011;26080;42.264;24.536;2024-01-30T07:25:59;13.77;;;3.57;;
39792;SDS011;26080;42.264;24.536;2024-01-30T07:28:26;35.43;;;21.27;;
39792;SDS011;26080;42.264;24.536;2024-01-30T07:30:51;20.57;;;13.30;;
39792;SDS011;26080;42.264;24.536;2024-01-30T07:33:17;7.57;;;5.50;;
39792;SDS011;26080;42.264;24.536;2024-01-30T07:35:42;8.60;;;5.03;;
39792;SDS011;26080;42.264;24.536;2024-01-30T07:38:08;11.73;;;5.33;;
39792;SDS011;26080;42.264;24.536;2024-01-30T07:40:33;11.30;;;7.37;;
39792;SDS011;26080;42.264;24.536;2024-01-30T07:42:58;21.50;;;9.77;;
39792;SDS011;26080;42.264;24.536;2024-01-30T07:45:24;12.43;;;5.73;;
39792;SDS011;26080;42.264;24.536;2024-01-30T07:47:51;8.13;;;4.10;;
39792;SDS011;26080;42.264;24.536;2024-01-30T07:50:17;49.53;;;16.50;;
39792;SDS011;26080;42.264;24.536;2024-01-30T07:52:43;96.67;;;20.50;;
39792;SDS011;26080;42.264;24.536;2024-01-30T07:55:09;28.30;;;9.63;;
39792;SDS011;26080;42.264;24.536;2024-01-30T07:57:35;26.03;;;9.03;;
39792;SDS011;26080;42.264;24.536;2024-01-30T08:00:03;13.35;;;3.75;;
39792;SDS011;26080;42.264;24.536;2024-01-30T08:02:30;6.37;;;4.37;;
39792;SDS011;26080;42.264;24.536;2024-01-30T08:04:56;6.10;;;2.80;;
39792;SDS011;26080;42.264;24.536;2024-01-30T08:07:21;5.25;;;2.70;;
39792;SDS011;26080;42.264;24.536;2024-01-30T08:09:47;177.15;;;51.05;;
39792;SDS011;26080;42.264;24.536;2024-01-30T08:12:13;292.30;;;74.00;;
39792;SDS011;26080;42.264;24.536;2024-01-30T08:14:38;111.70;;;21.38;;
39792;SDS011;26080;42.264;24.536;2024-01-30T08:17:04;72.25;;;18.92;;
39792;SDS011;26080;42.264;24.536;2024-01-30T08:19:30;43.30;;;15.05;;
39792;SDS011;26080;42.264;24.536;2024-01-30T08:21:55;27.48;;;11.68;;
39792;SDS011;26080;42.264;24.536;2024-01-30T08:24:21;11.25;;;6.38;;
39792;SDS011;26080;42.264;24.536;2024-01-30T08:26:46;24.67;;;7.33;;
39792;SDS011;26080;42.264;24.536;2024-01-30T08:29:12;12.57;;;5.53;;
39792;SDS011;26080;42.264;24.536;2024-01-30T08:31:37;6.80;;;3.90;;
39792;SDS011;26080;42.264;24.536;2024-01-30T08:34:02;10.45;;;6.38;;
39792;SDS011;26080;42.264;24.536;2024-01-30T08:36:28;69.43;;;22.33;;
39792;SDS011;26080;42.264;24.536;2024-01-30T08:38:53;528.63;;;234.40;;
39792;SDS011;26080;42.264;24.536;2024-01-30T08:41:19;244.68;;;66.95;;
39792;SDS011;26080;42.264;24.536;2024-01-30T08:43:44;223.05;;;67.57;;
39792;SDS011;26080;42.264;24.536;2024-01-30T08:46:10;76.63;;;20.63;;
39792;SDS011;26080;42.264;24.536;2024-01-30T08:48:36;42.47;;;10.57;;
39792;SDS011;26080;42.264;24.536;2024-01-30T08:51:01;8.15;;;4.45;;
39792;SDS011;26080;42.264;24.536;2024-01-30T08:53:26;14.55;;;3.90;;
39792;SDS011;26080;42.264;24.536;2024-01-30T08:55:52;9.93;;;4.88;;
39792;SDS011;26080;42.264;24.536;2024-01-30T08:58:17;22.58;;;5.47;;
39792;SDS011;26080;42.264;24.536;2024-01-30T09:00:44;9.68;;;4.88;;
39792;SDS011;26080;42.264;24.536;2024-01-30T09:03:09;16.13;;;4.65;;
39792;SDS011;26080;42.264;24.536;2024-01-30T09:05:35;21.27;;;6.57;;
39792;SDS011;26080;42.264;24.536;2024-01-30T09:08:00;22.65;;;9.93;;
39792;SDS011;26080;42.264;24.536;2024-01-30T09:10:26;12.95;;;6.95;;
39792;SDS011;26080;42.264;24.536;2024-01-30T09:12:51;18.85;;;5.10;;
39792;SDS011;26080;42.264;24.536;2024-01-30T09:15:20;5.25;;;2.88;;
39792;SDS011;26080;42.264;24.536;2024-01-30T09:17:45;10.27;;;4.57;;
39792;SDS011;26080;42.264;24.536;2024-01-30T09:20:11;7.80;;;4.28;;
39792;SDS011;26080;42.264;24.536;2024-01-30T09:22:36;22.67;;;5.72;;
39792;SDS011;26080;42.264;24.536;2024-01-30T09:25:02;4.63;;;2.72;;
39792;SDS011;26080;42.264;24.536;2024-01-30T09:27:27;13.30;;;2.83;;
39792;SDS011;26080;42.264;24.536;2024-01-30T09:29:53;7.13;;;2.17;;
39792;SDS011;26080;42.264;24.536;2024-01-30T09:32:18;4.70;;;3.00;;
39792;SDS011;26080;42.264;24.536;2024-01-30T09:34:44;3.25;;;2.08;;
39792;SDS011;26080;42.264;24.536;2024-01-30T09:37:10;3.60;;;1.58;;
39792;SDS011;26080;42.264;24.536;2024-01-30T09:39:36;3.72;;;2.65;;
39792;SDS011;26080;42.264;24.536;2024-01-30T09:44:33;2.90;;;1.70;;
39792;SDS011;26080;42.264;24.536;2024-01-30T09:47:00;4.90;;;1.35;;
39792;SDS011;26080;42.264;24.536;2024-01-30T09:49:29;1.92;;;1.48;;
39792;SDS011;26080;42.264;24.536;2024-01-30T09:51:57;2.08;;;1.70;;
39792;SDS011;26080;42.264;24.536;2024-01-30T09:54:23;3.03;;;1.75;;
39792;SDS011;26080;42.264;24.536;2024-01-30T09:56:48;2.58;;;1.77;;
39792;SDS011;26080;42.264;24.536;2024-01-30T09:59:14;1.70;;;1.33;;
39792;SDS011;26080;42.264;24.536;2024-01-30T10:01:40;1.77;;;1.35;;
39792;SDS011;26080;42.264;24.536;2024-01-30T10:04:06;5.00;;;1.67;;
39792;SDS011;26080;42.264;24.536;2024-01-30T10:06:32;8.15;;;4.10;;
39792;SDS011;26080;42.264;24.536;2024-01-30T10:08:57;2.42;;;1.30;;
39792;SDS011;26080;42.264;24.536;2024-01-30T10:11:23;9.32;;;2.35;;
39792;SDS011;26080;42.264;24.536;2024-01-30T10:13:48;10.00;;;5.80;;
39792;SDS011;26080;42.264;24.536;2024-01-30T10:16:14;4.90;;;2.00;;
39792;SDS011;26080;42.264;24.536;2024-01-30T10:18:41;3.47;;;1.83;;
39792;SDS011;26080;42.264;24.536;2024-01-30T10:21:07;1.38;;;1.13;;
39792;SDS011;26080;42.264;24.536;2024-01-30T10:23:34;3.38;;;1.88;;
39792;SDS011;26080;42.264;24.536;2024-01-30T10:26:02;6.07;;;2.47;;
39792;SDS011;26080;42.264;24.536;2024-01-30T10:28:29;10.45;;;3.17;;
39792;SDS011;26080;42.264;24.536;2024-01-30T10:30:58;7.28;;;1.17;;
39792;SDS011;26080;42.264;24.536;2024-01-30T10:33:25;4.20;;;2.13;;
39792;SDS011;26080;42.264;24.536;2024-01-30T10:35:53;3.60;;;1.00;;
39792;SDS011;26080;42.264;24.536;2024-01-30T10:38:25;1.95;;;1.00;;
39792;SDS011;26080;42.264;24.536;2024-01-30T10:40:55;2.45;;;1.27;;
39792;SDS011;26080;42.264;24.536;2024-01-30T10:43:22;3.78;;;2.10;;
39792;SDS011;26080;42.264;24.536;2024-01-30T10:45:49;5.85;;;3.45;;
39792;SDS011;26080;42.264;24.536;2024-01-30T10:48:17;9.85;;;3.08;;
39792;SDS011;26080;42.264;24.536;2024-01-30T10:50:48;15.60;;;7.53;;
39792;SDS011;26080;42.264;24.536;2024-01-30T10:53:15;16.20;;;6.43;;
39792;SDS011;26080;42.264;24.536;2024-01-30T10:55:42;13.57;;;5.80;;
39792;SDS011;26080;42.264;24.536;2024-01-30T10:58:10;17.23;;;7.40;;
39792;SDS011;26080;42.264;24.536;2024-01-30T11:00:36;18.40;;;6.28;;
39792;SDS011;26080;42.264;24.536;2024-01-30T11:03:04;23.58;;;7.63;;
39792;SDS011;26080;42.264;24.536;2024-01-30T11:05:30;8.93;;;4.18;;
39792;SDS011;26080;42.264;24.536;2024-01-30T11:07:55;22.35;;;6.07;;
39792;SDS011;26080;42.264;24.536;2024-01-30T11:10:21;22.08;;;4.35;;
39792;SDS011;26080;42.264;24.536;2024-01-30T11:12:50;16.52;;;5.25;;
39792;SDS011;26080;42.264;24.536;2024-01-30T11:15:16;3.80;;;1.75;;
39792;SDS011;26080;42.264;24.536;2024-01-30T11:20:25;2.88;;;1.75;;
39792;SDS011;26080;42.264;24.536;2024-01-30T11:22:53;6.57;;;2.40;;
39792;SDS011;26080;42.264;24.536;2024-01-30T11:25:21;8.43;;;3.10;;
39792;SDS011;26080;42.264;24.536;2024-01-30T11:27:49;7.13;;;2.90;;
39792;SDS011;26080;42.264;24.536;2024-01-30T11:33:13;3.60;;;1.80;;
39792;SDS011;26080;42.264;24.536;2024-01-30T11:38:06;2.83;;;1.23;;
39792;SDS011;26080;42.264;24.536;2024-01-30T11:40:41;0.73;;;0.50;;
39792;SDS011;26080;42.264;24.536;2024-01-30T11:43:07;1.20;;;0.70;;
39792;SDS011;26080;42.264;24.536;2024-01-30T11:45:34;3.42;;;1.58;;
39792;SDS011;26080;42.264;24.536;2024-01-30T11:48:01;3.08;;;1.13;;
39792;SDS011;26080;42.264;24.536;2024-01-30T11:50:30;8.20;;;2.72;;
39792;SDS011;26080;42.264;24.536;2024-01-30T11:52:56;1.08;;;0.85;;
39792;SDS011;26080;42.264;24.536;2024-01-30T11:55:23;4.13;;;2.33;;
39792;SDS011;26080;42.264;24.536;2024-01-30T11:57:49;3.65;;;1.13;;
39792;SDS011;26080;42.264;24.536;2024-01-30T12:00:14;5.50;;;2.22;;
39792;SDS011;26080;42.264;24.536;2024-01-30T12:02:41;19.80;;;2.92;;
39792;SDS011;26080;42.264;24.536;2024-01-30T12:05:07;6.88;;;3.58;;
39792;SDS011;26080;42.264;24.536;2024-01-30T12:07:33;4.35;;;2.00;;
39792;SDS011;26080;42.264;24.536;2024-01-30T12:09:59;2.05;;;0.47;;
39792;SDS011;26080;42.264;24.536;2024-01-30T12:12:25;2.35;;;1.20;;
39792;SDS011;26080;42.264;24.536;2024-01-30T12:14:52;2.50;;;1.45;;
39792;SDS011;26080;42.264;24.536;2024-01-30T12:17:33;5.28;;;1.15;;
39792;SDS011;26080;42.264;24.536;2024-01-30T12:20:15;0.65;;;0.50;;
39792;SDS011;26080;42.264;24.536;2024-01-30T12:22:43;0.52;;;0.43;;
39792;SDS011;26080;42.264;24.536;2024-01-30T12:25:17;0.68;;;0.43;;
39792;SDS011;26080;42.264;24.536;2024-01-30T12:27:44;10.25;;;1.70;;
39792;SDS011;26080;42.264;24.536;2024-01-30T12:30:14;0.55;;;0.47;;
39792;SDS011;26080;42.264;24.536;2024-01-30T12:32:43;0.60;;;0.40;;
39792;SDS011;26080;42.264;24.536;2024-01-30T12:35:10;6.78;;;0.75;;
39792;SDS011;26080;42.264;24.536;2024-01-30T12:37:39;3.08;;;0.95;;
39792;SDS011;26080;42.264;24.536;2024-01-30T12:40:07;1.83;;;0.73;;
39792;SDS011;26080;42.264;24.536;2024-01-30T12:42:33;0.40;;;0.30;;
39792;SDS011;26080;42.264;24.536;2024-01-30T12:44:59;1.80;;;0.75;;
39792;SDS011;26080;42.264;24.536;2024-01-30T12:47:25;0.75;;;0.45;;
39792;SDS011;26080;42.264;24.536;2024-01-30T12:49:51;2.63;;;1.38;;
39792;SDS011;26080;42.264;24.536;2024-01-30T12:52:20;1.48;;;1.15;;
39792;SDS011;26080;42.264;24.536;2024-01-30T12:54:49;8.43;;;0.52;;
39792;SDS011;26080;42.264;24.536;2024-01-30T12:57:15;2.08;;;1.13;;
39792;SDS011;26080;42.264;24.536;2024-01-30T12:59:41;0.60;;;0.60;;
39792;SDS011;26080;42.264;24.536;2024-01-30T13:02:07;1.88;;;0.57;;
39792;SDS011;26080;42.264;24.536;2024-01-30T13:04:33;1.73;;;1.13;;
39792;SDS011;26080;42.264;24.536;2024-01-30T13:06:59;0.93;;;0.65;;
39792;SDS011;26080;42.264;24.536;2024-01-30T13:09:25;5.13;;;2.20;;
39792;SDS011;26080;42.264;24.536;2024-01-30T13:11:51;1.10;;;1.00;;
39792;SDS011;26080;42.264;24.536;2024-01-30T13:14:17;1.45;;;0.70;;
39792;SDS011;26080;42.264;24.536;2024-01-30T13:16:43;0.77;;;0.65;;
39792;SDS011;26080;42.264;24.536;2024-01-30T13:19:08;4.10;;;0.63;;
39792;SDS011;26080;42.264;24.536;2024-01-30T13:21:34;1.83;;;0.50;;
39792;SDS011;26080;42.264;24.536;2024-01-30T13:23:59;0.98;;;0.52;;
39792;SDS011;26080;42.264;24.536;2024-01-30T13:26:25;1.40;;;0.68;;
39792;SDS011;26080;42.264;24.536;2024-01-30T13:28:50;0.80;;;0.70;;
39792;SDS011;26080;42.264;24.536;2024-01-30T13:31:16;1.05;;;0.70;;
39792;SDS011;26080;42.264;24.536;2024-01-30T13:33:42;1.75;;;0.73;;
39792;SDS011;26080;42.264;24.536;2024-01-30T13:36:08;1.77;;;0.45;;
39792;SDS011;26080;42.264;24.536;2024-01-30T13:38:35;1.67;;;0.65;;
39792;SDS011;26080;42.264;24.536;2024-01-30T13:41:01;2.17;;;1.25;;
39792;SDS011;26080;42.264;24.536;2024-01-30T13:43:26;3.00;;;1.52;;
39792;SDS011;26080;42.264;24.536;2024-01-30T13:45:52;2.90;;;1.15;;
39792;SDS011;26080;42.264;24.536;2024-01-30T13:48:17;1.33;;;0.90;;
39792;SDS011;26080;42.264;24.536;2024-01-30T13:50:43;1.45;;;0.82;;
39792;SDS011;26080;42.264;24.536;2024-01-30T13:53:08;1.50;;;0.70;;
39792;SDS011;26080;42.264;24.536;2024-01-30T13:55:34;1.60;;;0.90;;
39792;SDS011;26080;42.264;24.536;2024-01-30T13:58:00;1.65;;;1.15;;
39792;SDS011;26080;42.264;24.536;2024-01-30T14:00:26;1.33;;;0.75;;
39792;SDS011;26080;42.264;24.536;2024-01-30T14:02:52;2.15;;;0.88;;
39792;SDS011;26080;42.264;24.536;2024-01-30T14:05:19;2.38;;;1.23;;
39792;SDS011;26080;42.264;24.536;2024-01-30T14:07:46;1.52;;;0.85;;
39792;SDS011;26080;42.264;24.536;2024-01-30T14:10:12;2.55;;;1.50;;
39792;SDS011;26080;42.264;24.536;2024-01-30T14:12:37;3.40;;;1.13;;
39792;SDS011;26080;42.264;24.536;2024-01-30T14:15:03;4.22;;;1.10;;
39792;SDS011;26080;42.264;24.536;2024-01-30T14:17:28;2.67;;;1.73;;
39792;SDS011;26080;42.264;24.536;2024-01-30T14:19:54;2.17;;;0.85;;
39792;SDS011;26080;42.264;24.536;2024-01-30T14:22:19;2.72;;;0.90;;
39792;SDS011;26080;42.264;24.536;2024-01-30T14:24:45;9.10;;;2.25;;
39792;SDS011;26080;42.264;24.536;2024-01-30T14:27:10;2.55;;;1.23;;
39792;SDS011;26080;42.264;24.536;2024-01-30T14:29:36;2.22;;;0.95;;
39792;SDS011;26080;42.264;24.536;2024-01-30T14:32:01;2.13;;;0.80;;